sensor_id;sensor_type;location;lat;lon;timestamp;P1;durP1;ratioP1;P2;durP2;ratioP2
82396;SDS011;72034;51.426;7.534;2023-08-20T04:00:29;11.43;;;8.90;;
82396;SDS011;72034;51.426;7.534;2023-08-20T04:02:55;9.90;;;8.77;;
82396;SDS011;72034;51.426;7.534;2023-08-20T04:05:20;8.88;;;8.07;;
82396;SDS011;72034;51.426;7.534;2023-08-20T04:07:45;12.55;;;9.45;;
82396;SDS011;72034;51.426;7.534;2023-08-20T04:10:11;10.63;;;8.82;;
82396;SDS011;72034;51.426;7.534;2023-08-20T04:12:36;12.13;;;8.98;;
82396;SDS011;72034;51.426;7.534;2023-08-20T04:15:01;11.18;;;8.75;;
82396;SDS011;72034;51.426;7.534;2023-08-20T04:17:27;10.13;;;9.13;;
82396;SDS011;72034;51.426;7.534;2023-08-20T04:19:52;11.38;;;9.25;;
82396;SDS011;72034;51.426;7.534;2023-08-20T04:22:17;10.75;;;8.85;;
82396;SDS011;72034;51.426;7.534;2023-08-20T04:24:42;11.20;;;8.40;;
82396;SDS011;72034;51.426;7.534;2023-08-20T04:27:08;11.10;;;9.15;;
82396;SDS011;72034;51.426;7.534;2023-08-20T04:29:33;9.98;;;9.07;;
82396;SDS011;72034;51.426;7.534;2023-08-20T04:31:58;12.13;;;10.63;;
82396;SDS011;72034;51.426;7.534;2023-08-20T04:34:24;12.88;;;10.88;;
82396;SDS011;72034;51.426;7.534;2023-08-20T04:36:50;11.48;;;9.90;;
82396;SDS011;72034;51.426;7.534;2023-08-20T04:39:16;11.15;;;8.93;;
82396;SDS011;72034;51.426;7.534;2023-08-20T04:41:42;12.07;;;8.73;;
82396;SDS011;72034;51.426;7.534;2023-08-20T04:44:07;10.80;;;9.73;;
82396;SDS011;72034;51.426;7.534;2023-08-20T04:46:33;11.27;;;9.30;;
82396;SDS011;72034;51.426;7.534;2023-08-20T04:48:58;13.52;;;11.15;;
82396;SDS011;72034;51.426;7.534;2023-08-20T04:51:23;12.98;;;11.65;;
82396;SDS011;72034;51.426;7.534;2023-08-20T04:53:48;15.93;;;12.02;;
82396;SDS011;72034;51.426;7.534;2023-08-20T04:56:14;14.13;;;12.75;;
82396;SDS011;72034;51.426;7.534;2023-08-20T04:58:39;13.63;;;11.45;;
82396;SDS011;72034;51.426;7.534;2023-08-20T05:01:04;14.82;;;11.75;;
82396;SDS011;72034;51.426;7.534;2023-08-20T05:03:30;13.13;;;11.77;;
82396;SDS011;72034;51.426;7.534;2023-08-20T05:05:56;13.40;;;12.13;;
82396;SDS011;72034;51.426;7.534;2023-08-20T05:08:21;11.95;;;10.85;;
82396;SDS011;72034;51.426;7.534;2023-08-20T05:10:46;16.70;;;12.00;;
82396;SDS011;72034;51.426;7.534;2023-08-20T05:13:12;17.85;;;12.32;;
82396;SDS011;72034;51.426;7.534;2023-08-20T05:15:37;14.98;;;10.98;;
82396;SDS011;72034;51.426;7.534;2023-08-20T05:18:02;13.57;;;11.48;;
82396;SDS011;72034;51.426;7.534;2023-08-20T05:20:28;17.30;;;10.45;;
82396;SDS011;72034;51.426;7.534;2023-08-20T05:22:53;15.23;;;11.73;;
82396;SDS011;72034;51.426;7.534;2023-08-20T05:25:18;13.93;;;12.10;;
82396;SDS011;72034;51.426;7.534;2023-08-20T05:27:43;11.70;;;10.45;;
82396;SDS011;72034;51.426;7.534;2023-08-20T05:30:09;12.45;;;11.02;;
82396;SDS011;72034;51.426;7.534;2023-08-20T05:32:34;16.73;;;11.90;;
82396;SDS011;72034;51.426;7.534;2023-08-20T05:35:00;12.23;;;10.98;;
82396;SDS011;72034;51.426;7.534;2023-08-20T05:37:25;12.00;;;10.75;;
82396;SDS011;72034;51.426;7.534;2023-08-20T05:39:50;14.45;;;11.30;;
82396;SDS011;72034;51.426;7.534;2023-08-20T05:42:16;13.88;;;10.90;;
82396;SDS011;72034;51.426;7.534;2023-08-20T05:44:41;16.38;;;13.10;;
82396;SDS011;72034;51.426;7.534;2023-08-20T05:47:07;14.40;;;12.05;;
82396;SDS011;72034;51.426;7.534;2023-08-20T05:49:32;14.60;;;13.10;;
82396;SDS011;72034;51.426;7.534;2023-08-20T05:51:58;14.73;;;12.27;;
82396;SDS011;72034;51.426;7.534;2023-08-20T05:54:23;15.25;;;13.45;;
82396;SDS011;72034;51.426;7.534;2023-08-20T05:56:48;16.67;;;14.13;;
82396;SDS011;72034;51.426;7.534;2023-08-20T05:59:13;16.42;;;14.73;;
82396;SDS011;72034;51.426;7.534;2023-08-20T06:01:39;16.88;;;15.07;;
82396;SDS011;72034;51.426;7.534;2023-08-20T06:04:04;16.40;;;14.40;;
82396;SDS011;72034;51.426;7.534;2023-08-20T06:06:29;17.02;;;14.35;;
82396;SDS011;72034;51.426;7.534;2023-08-20T06:08:55;14.60;;;13.10;;
82396;SDS011;72034;51.426;7.534;2023-08-20T06:11:20;15.38;;;13.90;;
82396;SDS011;72034;51.426;7.534;2023-08-20T06:13:46;16.17;;;13.23;;
82396;SDS011;72034;51.426;7.534;2023-08-20T06:16:11;14.70;;;13.10;;
82396;SDS011;72034;51.426;7.534;2023-08-20T06:18:36;14.75;;;13.25;;
82396;SDS011;72034;51.426;7.534;2023-08-20T06:21:02;15.43;;;13.80;;
82396;SDS011;72034;51.426;7.534;2023-08-20T06:23:28;15.43;;;13.88;;
82396;SDS011;72034;51.426;7.534;2023-08-20T06:25:53;15.98;;;14.32;;
82396;SDS011;72034;51.426;7.534;2023-08-20T06:28:19;14.40;;;12.95;;
82396;SDS011;72034;51.426;7.534;2023-08-20T06:30:44;13.85;;;12.35;;
82396;SDS011;72034;51.426;7.534;2023-08-20T06:33:09;13.82;;;11.70;;
82396;SDS011;72034;51.426;7.534;2023-08-20T06:35:35;14.27;;;12.80;;
82396;SDS011;72034;51.426;7.534;2023-08-20T06:38:00;13.93;;;12.27;;
82396;SDS011;72034;51.426;7.534;2023-08-20T06:40:25;16.55;;;14.77;;
82396;SDS011;72034;51.426;7.534;2023-08-20T06:42:50;16.25;;;13.68;;
82396;SDS011;72034;51.426;7.534;2023-08-20T06:45:16;16.50;;;14.25;;
82396;SDS011;72034;51.426;7.534;2023-08-20T06:47:41;15.32;;;13.90;;
82396;SDS011;72034;51.426;7.534;2023-08-20T06:50:06;14.40;;;12.70;;
82396;SDS011;72034;51.426;7.534;2023-08-20T06:52:32;14.95;;;13.65;;
82396;SDS011;72034;51.426;7.534;2023-08-20T06:54:57;15.68;;;14.07;;
82396;SDS011;72034;51.426;7.534;2023-08-20T06:57:22;16.40;;;14.80;;
82396;SDS011;72034;51.426;7.534;2023-08-20T06:59:48;15.43;;;13.85;;
82396;SDS011;72034;51.426;7.534;2023-08-20T07:02:13;16.20;;;12.55;;
82396;SDS011;72034;51.426;7.534;2023-08-20T07:04:38;18.17;;;14.85;;
82396;SDS011;72034;51.426;7.534;2023-08-20T07:07:04;14.30;;;12.70;;
82396;SDS011;72034;51.426;7.534;2023-08-20T07:09:33;15.85;;;12.95;;
82396;SDS011;72034;51.426;7.534;2023-08-20T07:11:58;14.23;;;12.90;;
82396;SDS011;72034;51.426;7.534;2023-08-20T07:14:24;15.07;;;13.13;;
82396;SDS011;72034;51.426;7.534;2023-08-20T07:16:49;15.02;;;13.05;;
82396;SDS011;72034;51.426;7.534;2023-08-20T07:19:14;16.35;;;14.18;;
82396;SDS011;72034;51.426;7.534;2023-08-20T07:21:39;17.38;;;15.57;;
82396;SDS011;72034;51.426;7.534;2023-08-20T07:24:05;18.73;;;16.65;;
82396;SDS011;72034;51.426;7.534;2023-08-20T07:26:30;19.58;;;17.30;;
82396;SDS011;72034;51.426;7.534;2023-08-20T07:28:56;14.90;;;13.38;;
82396;SDS011;72034;51.426;7.534;2023-08-20T07:31:21;19.83;;;13.82;;
82396;SDS011;72034;51.426;7.534;2023-08-20T07:33:47;15.68;;;14.00;;
82396;SDS011;72034;51.426;7.534;2023-08-20T07:36:14;17.60;;;15.50;;
82396;SDS011;72034;51.426;7.534;2023-08-20T07:38:40;16.85;;;14.90;;
82396;SDS011;72034;51.426;7.534;2023-08-20T07:41:08;17.60;;;15.80;;
82396;SDS011;72034;51.426;7.534;2023-08-20T07:43:38;16.73;;;15.02;;
82396;SDS011;72034;51.426;7.534;2023-08-20T07:46:05;17.88;;;15.23;;
82396;SDS011;72034;51.426;7.534;2023-08-20T07:48:30;17.00;;;15.20;;
82396;SDS011;72034;51.426;7.534;2023-08-20T07:50:56;18.25;;;16.20;;
82396;SDS011;72034;51.426;7.534;2023-08-20T07:53:21;16.48;;;14.32;;
82396;SDS011;72034;51.426;7.534;2023-08-20T07:55:46;18.60;;;15.18;;
82396;SDS011;72034;51.426;7.534;2023-08-20T07:58:12;16.95;;;14.65;;
82396;SDS011;72034;51.426;7.534;2023-08-20T08:00:37;16.70;;;14.77;;
82396;SDS011;72034;51.426;7.534;2023-08-20T08:03:02;14.90;;;13.45;;
82396;SDS011;72034;51.426;7.534;2023-08-20T08:05:28;16.60;;;14.73;;
82396;SDS011;72034;51.426;7.534;2023-08-20T08:07:53;16.52;;;14.93;;
82396;SDS011;72034;51.426;7.534;2023-08-20T08:10:19;18.55;;;16.55;;
82396;SDS011;72034;51.426;7.534;2023-08-20T08:12:44;19.08;;;15.50;;
82396;SDS011;72034;51.426;7.534;2023-08-20T08:15:10;17.77;;;16.08;;
82396;SDS011;72034;51.426;7.534;2023-08-20T08:17:36;17.70;;;14.93;;
82396;SDS011;72034;51.426;7.534;2023-08-20T08:20:01;19.40;;;16.00;;
82396;SDS011;72034;51.426;7.534;2023-08-20T08:22:27;19.70;;;17.70;;
82396;SDS011;72034;51.426;7.534;2023-08-20T08:24:52;18.52;;;16.52;;
82396;SDS011;72034;51.426;7.534;2023-08-20T08:27:17;19.55;;;17.33;;
82396;SDS011;72034;51.426;7.534;2023-08-20T08:29:42;19.67;;;17.67;;
82396;SDS011;72034;51.426;7.534;2023-08-20T08:32:09;19.95;;;18.05;;
82396;SDS011;72034;51.426;7.534;2023-08-20T08:34:34;16.58;;;14.90;;
82396;SDS011;72034;51.426;7.534;2023-08-20T08:37:00;17.58;;;15.65;;
82396;SDS011;72034;51.426;7.534;2023-08-20T08:39:25;14.40;;;13.00;;
82396;SDS011;72034;51.426;7.534;2023-08-20T08:41:51;15.55;;;14.05;;
82396;SDS011;72034;51.426;7.534;2023-08-20T08:44:16;14.75;;;13.23;;
82396;SDS011;72034;51.426;7.534;2023-08-20T08:46:42;13.10;;;11.43;;
82396;SDS011;72034;51.426;7.534;2023-08-20T08:49:07;11.32;;;9.35;;
82396;SDS011;72034;51.426;7.534;2023-08-20T08:51:33;11.32;;;10.15;;
82396;SDS011;72034;51.426;7.534;2023-08-20T08:53:59;10.27;;;8.38;;
82396;SDS011;72034;51.426;7.534;2023-08-20T08:56:25;8.48;;;7.78;;
82396;SDS011;72034;51.426;7.534;2023-08-20T08:58:50;7.40;;;6.72;;
82396;SDS011;72034;51.426;7.534;2023-08-20T09:01:15;7.70;;;6.90;;
82396;SDS011;72034;51.426;7.534;2023-08-20T09:03:41;6.93;;;5.82;;
82396;SDS011;72034;51.426;7.534;2023-08-20T09:06:09;7.22;;;6.63;;
82396;SDS011;72034;51.426;7.534;2023-08-20T09:08:35;8.88;;;7.78;;
82396;SDS011;72034;51.426;7.534;2023-08-20T09:11:00;8.90;;;8.00;;
82396;SDS011;72034;51.426;7.534;2023-08-20T09:13:32;9.02;;;8.07;;
82396;SDS011;72034;51.426;7.534;2023-08-20T09:15:58;7.10;;;6.53;;
82396;SDS011;72034;51.426;7.534;2023-08-20T09:18:24;7.15;;;6.45;;
82396;SDS011;72034;51.426;7.534;2023-08-20T09:20:49;6.75;;;5.40;;
82396;SDS011;72034;51.426;7.534;2023-08-20T09:23:15;9.07;;;6.97;;
82396;SDS011;72034;51.426;7.534;2023-08-20T09:25:41;6.82;;;6.15;;
82396;SDS011;72034;51.426;7.534;2023-08-20T09:28:07;8.43;;;6.20;;
82396;SDS011;72034;51.426;7.534;2023-08-20T09:30:33;6.43;;;5.70;;
82396;SDS011;72034;51.426;7.534;2023-08-20T09:33:07;7.13;;;6.43;;
82396;SDS011;72034;51.426;7.534;2023-08-20T09:35:34;7.65;;;6.20;;
82396;SDS011;72034;51.426;7.534;2023-08-20T09:38:00;7.30;;;6.63;;
82396;SDS011;72034;51.426;7.534;2023-08-20T09:40:26;7.32;;;6.20;;
82396;SDS011;72034;51.426;7.534;2023-08-20T09:42:52;7.18;;;6.45;;
82396;SDS011;72034;51.426;7.534;2023-08-20T09:45:19;6.75;;;6.00;;
82396;SDS011;72034;51.426;7.534;2023-08-20T09:47:45;6.47;;;5.88;;
82396;SDS011;72034;51.426;7.534;2023-08-20T09:50:13;6.88;;;5.68;;
82396;SDS011;72034;51.426;7.534;2023-08-20T09:52:44;6.70;;;6.13;;
82396;SDS011;72034;51.426;7.534;2023-08-20T09:55:17;6.30;;;5.70;;
82396;SDS011;72034;51.426;7.534;2023-08-20T09:57:48;7.15;;;6.07;;
82396;SDS011;72034;51.426;7.534;2023-08-20T10:00:13;7.03;;;6.40;;
82396;SDS011;72034;51.426;7.534;2023-08-20T10:02:43;7.65;;;6.45;;
82396;SDS011;72034;51.426;7.534;2023-08-20T10:05:09;7.63;;;6.55;;
82396;SDS011;72034;51.426;7.534;2023-08-20T10:07:35;6.75;;;6.15;;
82396;SDS011;72034;51.426;7.534;2023-08-20T10:10:03;6.55;;;5.82;;
82396;SDS011;72034;51.426;7.534;2023-08-20T10:12:29;7.88;;;6.35;;
82396;SDS011;72034;51.426;7.534;2023-08-20T10:14:56;6.50;;;6.00;;
82396;SDS011;72034;51.426;7.534;2023-08-20T10:17:22;7.50;;;5.70;;
82396;SDS011;72034;51.426;7.534;2023-08-20T10:19:48;6.88;;;6.18;;
82396;SDS011;72034;51.426;7.534;2023-08-20T10:22:13;6.97;;;6.28;;
82396;SDS011;72034;51.426;7.534;2023-08-20T10:24:47;7.28;;;6.47;;
82396;SDS011;72034;51.426;7.534;2023-08-20T10:27:18;8.20;;;6.03;;
82396;SDS011;72034;51.426;7.534;2023-08-20T10:29:49;6.80;;;6.10;;
82396;SDS011;72034;51.426;7.534;2023-08-20T10:32:14;9.10;;;6.95;;
82396;SDS011;72034;51.426;7.534;2023-08-20T10:34:42;9.00;;;6.55;;
82396;SDS011;72034;51.426;7.534;2023-08-20T10:37:08;8.55;;;7.45;;
82396;SDS011;72034;51.426;7.534;2023-08-20T10:39:53;9.80;;;7.43;;
82396;SDS011;72034;51.426;7.534;2023-08-20T10:42:22;11.32;;;8.25;;
82396;SDS011;72034;51.426;7.534;2023-08-20T10:45:07;8.60;;;7.80;;
82396;SDS011;72034;51.426;7.534;2023-08-20T10:47:43;8.82;;;7.97;;
82396;SDS011;72034;51.426;7.534;2023-08-20T10:50:10;8.95;;;8.05;;
82396;SDS011;72034;51.426;7.534;2023-08-20T10:52:40;7.63;;;6.85;;
82396;SDS011;72034;51.426;7.534;2023-08-20T10:55:08;8.30;;;7.47;;
82396;SDS011;72034;51.426;7.534;2023-08-20T10:57:37;8.05;;;7.25;;
82396;SDS011;72034;51.426;7.534;2023-08-20T11:00:05;7.60;;;6.90;;
82396;SDS011;72034;51.426;7.534;2023-08-20T11:02:36;7.07;;;6.38;;
82396;SDS011;72034;51.426;7.534;2023-08-20T11:05:09;6.82;;;6.22;;
82396;SDS011;72034;51.426;7.534;2023-08-20T11:07:41;6.70;;;6.07;;
82396;SDS011;72034;51.426;7.534;2023-08-20T11:10:07;6.10;;;5.60;;
82396;SDS011;72034;51.426;7.534;2023-08-20T11:12:32;5.68;;;5.07;;
82396;SDS011;72034;51.426;7.534;2023-08-20T11:15:00;6.03;;;5.43;;
82396;SDS011;72034;51.426;7.534;2023-08-20T11:17:26;7.53;;;5.88;;
82396;SDS011;72034;51.426;7.534;2023-08-20T11:19:51;7.13;;;6.45;;
82396;SDS011;72034;51.426;7.534;2023-08-20T11:22:16;7.88;;;7.18;;
82396;SDS011;72034;51.426;7.534;2023-08-20T11:24:43;7.47;;;6.88;;
82396;SDS011;72034;51.426;7.534;2023-08-20T11:27:09;7.82;;;6.15;;
82396;SDS011;72034;51.426;7.534;2023-08-20T11:29:34;6.82;;;5.60;;
82396;SDS011;72034;51.426;7.534;2023-08-20T11:31:59;6.22;;;5.75;;
82396;SDS011;72034;51.426;7.534;2023-08-20T11:34:28;8.35;;;6.07;;
82396;SDS011;72034;51.426;7.534;2023-08-20T11:36:54;8.20;;;5.72;;
82396;SDS011;72034;51.426;7.534;2023-08-20T11:39:19;6.60;;;5.22;;
82396;SDS011;72034;51.426;7.534;2023-08-20T11:41:45;5.32;;;4.65;;
82396;SDS011;72034;51.426;7.534;2023-08-20T11:44:10;4.95;;;4.47;;
82396;SDS011;72034;51.426;7.534;2023-08-20T11:46:42;5.75;;;4.72;;
82396;SDS011;72034;51.426;7.534;2023-08-20T11:49:09;6.35;;;4.88;;
82396;SDS011;72034;51.426;7.534;2023-08-20T11:51:36;5.15;;;4.65;;
82396;SDS011;72034;51.426;7.534;2023-08-20T11:54:06;6.75;;;6.05;;
82396;SDS011;72034;51.426;7.534;2023-08-20T11:56:32;7.18;;;6.15;;
82396;SDS011;72034;51.426;7.534;2023-08-20T11:58:59;8.70;;;6.60;;
82396;SDS011;72034;51.426;7.534;2023-08-20T12:01:25;8.23;;;6.68;;
82396;SDS011;72034;51.426;7.534;2023-08-20T12:03:50;7.88;;;6.45;;
82396;SDS011;72034;51.426;7.534;2023-08-20T12:06:19;9.00;;;6.43;;
82396;SDS011;72034;51.426;7.534;2023-08-20T12:08:46;7.07;;;6.47;;
82396;SDS011;72034;51.426;7.534;2023-08-20T12:11:12;8.40;;;6.68;;
82396;SDS011;72034;51.426;7.534;2023-08-20T12:13:37;7.95;;;7.15;;
82396;SDS011;72034;51.426;7.534;2023-08-20T12:16:02;7.47;;;6.88;;
82396;SDS011;72034;51.426;7.534;2023-08-20T12:18:28;9.07;;;6.60;;
82396;SDS011;72034;51.426;7.534;2023-08-20T12:20:54;9.02;;;7.28;;
82396;SDS011;72034;51.426;7.534;2023-08-20T12:23:20;7.20;;;6.50;;
82396;SDS011;72034;51.426;7.534;2023-08-20T12:25:49;7.70;;;7.00;;
82396;SDS011;72034;51.426;7.534;2023-08-20T12:28:15;7.88;;;6.85;;
82396;SDS011;72034;51.426;7.534;2023-08-20T12:30:40;7.50;;;6.80;;
82396;SDS011;72034;51.426;7.534;2023-08-20T12:33:06;6.47;;;5.95;;
82396;SDS011;72034;51.426;7.534;2023-08-20T12:35:31;6.90;;;6.20;;
82396;SDS011;72034;51.426;7.534;2023-08-20T12:37:56;7.78;;;6.72;;
82396;SDS011;72034;51.426;7.534;2023-08-20T12:40:22;6.63;;;5.97;;
82396;SDS011;72034;51.426;7.534;2023-08-20T12:42:47;9.48;;;7.50;;
82396;SDS011;72034;51.426;7.534;2023-08-20T12:45:12;8.73;;;7.82;;
82396;SDS011;72034;51.426;7.534;2023-08-20T12:47:38;8.27;;;7.53;;
82396;SDS011;72034;51.426;7.534;2023-08-20T12:50:04;8.07;;;7.35;;
82396;SDS011;72034;51.426;7.534;2023-08-20T12:52:30;8.27;;;7.55;;
82396;SDS011;72034;51.426;7.534;2023-08-20T12:54:55;8.60;;;7.43;;
82396;SDS011;72034;51.426;7.534;2023-08-20T12:57:21;8.57;;;7.78;;
82396;SDS011;72034;51.426;7.534;2023-08-20T12:59:46;8.00;;;7.20;;
82396;SDS011;72034;51.426;7.534;2023-08-20T13:02:11;7.63;;;6.90;;
82396;SDS011;72034;51.426;7.534;2023-08-20T13:04:37;9.10;;;8.20;;
82396;SDS011;72034;51.426;7.534;2023-08-20T13:07:03;9.25;;;8.40;;
82396;SDS011;72034;51.426;7.534;2023-08-20T13:09:29;12.18;;;9.68;;
82396;SDS011;72034;51.426;7.534;2023-08-20T13:11:56;10.40;;;8.88;;
82396;SDS011;72034;51.426;7.534;2023-08-20T13:14:22;10.27;;;9.23;;
82396;SDS011;72034;51.426;7.534;2023-08-20T13:16:47;12.05;;;11.05;;
82396;SDS011;72034;51.426;7.534;2023-08-20T13:19:13;12.32;;;11.20;;
82396;SDS011;72034;51.426;7.534;2023-08-20T13:21:39;12.07;;;10.98;;
82396;SDS011;72034;51.426;7.534;2023-08-20T13:24:04;13.35;;;11.60;;
82396;SDS011;72034;51.426;7.534;2023-08-20T13:26:30;12.25;;;11.25;;
82396;SDS011;72034;51.426;7.534;2023-08-20T13:28:55;13.70;;;12.38;;
82396;SDS011;72034;51.426;7.534;2023-08-20T13:31:20;14.77;;;13.48;;
82396;SDS011;72034;51.426;7.534;2023-08-20T13:33:46;14.90;;;13.57;;
82396;SDS011;72034;51.426;7.534;2023-08-20T13:36:11;17.10;;;15.52;;
82396;SDS011;72034;51.426;7.534;2023-08-20T13:38:36;14.85;;;13.55;;
82396;SDS011;72034;51.426;7.534;2023-08-20T13:41:02;15.75;;;14.20;;
82396;SDS011;72034;51.426;7.534;2023-08-20T13:43:27;15.63;;;14.23;;
82396;SDS011;72034;51.426;7.534;2023-08-20T13:45:52;15.10;;;13.70;;
82396;SDS011;72034;51.426;7.534;2023-08-20T13:48:18;15.50;;;14.00;;
82396;SDS011;72034;51.426;7.534;2023-08-20T13:50:43;16.23;;;14.80;;
82396;SDS011;72034;51.426;7.534;2023-08-20T13:53:08;17.40;;;15.00;;
82396;SDS011;72034;51.426;7.534;2023-08-20T13:55:35;15.35;;;14.05;;
82396;SDS011;72034;51.426;7.534;2023-08-20T13:58:00;16.55;;;14.98;;
82396;SDS011;72034;51.426;7.534;2023-08-20T14:00:25;16.92;;;15.38;;
82396;SDS011;72034;51.426;7.534;2023-08-20T14:02:51;16.77;;;15.20;;
82396;SDS011;72034;51.426;7.534;2023-08-20T14:05:16;16.98;;;15.43;;
82396;SDS011;72034;51.426;7.534;2023-08-20T14:07:43;17.42;;;15.93;;
82396;SDS011;72034;51.426;7.534;2023-08-20T14:10:08;16.83;;;15.52;;
82396;SDS011;72034;51.426;7.534;2023-08-20T14:12:34;18.50;;;16.90;;
82396;SDS011;72034;51.426;7.534;2023-08-20T14:14:59;17.77;;;16.30;;
82396;SDS011;72034;51.426;7.534;2023-08-20T14:17:24;17.40;;;15.88;;
82396;SDS011;72034;51.426;7.534;2023-08-20T14:19:50;17.60;;;16.05;;
82396;SDS011;72034;51.426;7.534;2023-08-20T14:22:15;17.60;;;16.17;;
82396;SDS011;72034;51.426;7.534;2023-08-20T14:24:40;18.20;;;16.63;;
82396;SDS011;72034;51.426;7.534;2023-08-20T14:27:06;18.23;;;16.73;;
82396;SDS011;72034;51.426;7.534;2023-08-20T14:29:32;18.30;;;16.80;;
82396;SDS011;72034;51.426;7.534;2023-08-20T14:31:57;18.45;;;16.95;;
82396;SDS011;72034;51.426;7.534;2023-08-20T14:34:23;18.65;;;16.95;;
82396;SDS011;72034;51.426;7.534;2023-08-20T14:36:48;17.38;;;15.93;;
82396;SDS011;72034;51.426;7.534;2023-08-20T14:39:13;18.55;;;16.90;;
82396;SDS011;72034;51.426;7.534;2023-08-20T14:41:39;17.92;;;16.48;;
82396;SDS011;72034;51.426;7.534;2023-08-20T14:44:04;18.27;;;16.77;;
82396;SDS011;72034;51.426;7.534;2023-08-20T14:46:30;17.98;;;16.38;;
82396;SDS011;72034;51.426;7.534;2023-08-20T14:48:55;18.05;;;16.60;;
82396;SDS011;72034;51.426;7.534;2023-08-20T14:51:21;17.05;;;15.57;;
82396;SDS011;72034;51.426;7.534;2023-08-20T14:53:46;18.17;;;16.38;;
82396;SDS011;72034;51.426;7.534;2023-08-20T14:56:12;16.80;;;15.40;;
82396;SDS011;72034;51.426;7.534;2023-08-20T14:58:37;17.55;;;16.15;;
82396;SDS011;72034;51.426;7.534;2023-08-20T15:01:02;16.88;;;15.48;;
82396;SDS011;72034;51.426;7.534;2023-08-20T15:03:28;16.52;;;15.13;;
82396;SDS011;72034;51.426;7.534;2023-08-20T15:05:53;15.88;;;14.77;;
82396;SDS011;72034;51.426;7.534;2023-08-20T15:08:19;16.58;;;15.18;;
82396;SDS011;72034;51.426;7.534;2023-08-20T15:10:48;15.30;;;14.00;;
82396;SDS011;72034;51.426;7.534;2023-08-20T15:13:28;15.35;;;14.20;;
82396;SDS011;72034;51.426;7.534;2023-08-20T15:15:53;15.35;;;13.95;;
82396;SDS011;72034;51.426;7.534;2023-08-20T15:18:19;14.45;;;13.13;;
82396;SDS011;72034;51.426;7.534;2023-08-20T15:20:45;14.57;;;13.32;;
82396;SDS011;72034;51.426;7.534;2023-08-20T15:23:10;15.40;;;14.13;;
82396;SDS011;72034;51.426;7.534;2023-08-20T15:25:35;14.65;;;13.55;;
82396;SDS011;72034;51.426;7.534;2023-08-20T15:28:01;14.43;;;13.23;;
82396;SDS011;72034;51.426;7.534;2023-08-20T15:30:28;14.13;;;12.93;;
82396;SDS011;72034;51.426;7.534;2023-08-20T15:32:53;13.40;;;12.30;;
82396;SDS011;72034;51.426;7.534;2023-08-20T15:35:19;14.52;;;13.43;;
82396;SDS011;72034;51.426;7.534;2023-08-20T15:37:44;14.60;;;12.98;;
82396;SDS011;72034;51.426;7.534;2023-08-20T15:40:09;14.98;;;13.73;;
82396;SDS011;72034;51.426;7.534;2023-08-20T15:42:37;14.07;;;12.98;;
82396;SDS011;72034;51.426;7.534;2023-08-20T15:45:03;14.75;;;13.55;;
82396;SDS011;72034;51.426;7.534;2023-08-20T15:47:28;14.70;;;13.40;;
82396;SDS011;72034;51.426;7.534;2023-08-20T15:49:53;13.68;;;12.63;;
82396;SDS011;72034;51.426;7.534;2023-08-20T15:52:19;15.27;;;13.00;;
82396;SDS011;72034;51.426;7.534;2023-08-20T15:54:44;12.73;;;11.75;;
82396;SDS011;72034;51.426;7.534;2023-08-20T15:57:09;13.93;;;12.88;;
82396;SDS011;72034;51.426;7.534;2023-08-20T15:59:36;12.80;;;11.60;;
82396;SDS011;72034;51.426;7.534;2023-08-20T16:02:04;12.25;;;11.20;;
82396;SDS011;72034;51.426;7.534;2023-08-20T16:04:32;13.43;;;12.32;;
82396;SDS011;72034;51.426;7.534;2023-08-20T16:06:59;13.05;;;11.95;;
82396;SDS011;72034;51.426;7.534;2023-08-20T16:09:24;13.27;;;12.02;;
82396;SDS011;72034;51.426;7.534;2023-08-20T16:11:49;11.68;;;10.55;;
82396;SDS011;72034;51.426;7.534;2023-08-20T16:14:15;13.80;;;11.13;;
82396;SDS011;72034;51.426;7.534;2023-08-20T16:16:40;12.73;;;11.68;;
82396;SDS011;72034;51.426;7.534;2023-08-20T16:19:06;10.90;;;9.88;;
82396;SDS011;72034;51.426;7.534;2023-08-20T16:21:31;10.07;;;9.38;;
82396;SDS011;72034;51.426;7.534;2023-08-20T16:23:57;11.27;;;10.18;;
82396;SDS011;72034;51.426;7.534;2023-08-20T16:26:22;11.80;;;10.70;;
82396;SDS011;72034;51.426;7.534;2023-08-20T16:28:48;9.38;;;8.48;;
82396;SDS011;72034;51.426;7.534;2023-08-20T16:31:13;9.40;;;8.60;;
82396;SDS011;72034;51.426;7.534;2023-08-20T16:33:39;9.63;;;8.75;;
82396;SDS011;72034;51.426;7.534;2023-08-20T16:36:04;8.20;;;7.50;;
82396;SDS011;72034;51.426;7.534;2023-08-20T16:38:30;9.27;;;7.43;;
82396;SDS011;72034;51.426;7.534;2023-08-20T16:40:58;8.05;;;7.18;;
82396;SDS011;72034;51.426;7.534;2023-08-20T16:43:24;9.02;;;6.65;;
82396;SDS011;72034;51.426;7.534;2023-08-20T16:45:56;9.13;;;6.40;;
82396;SDS011;72034;51.426;7.534;2023-08-20T16:48:24;10.13;;;6.72;;
82396;SDS011;72034;51.426;7.534;2023-08-20T16:50:49;7.13;;;6.03;;
82396;SDS011;72034;51.426;7.534;2023-08-20T16:53:14;7.40;;;5.78;;
82396;SDS011;72034;51.426;7.534;2023-08-20T16:55:41;7.88;;;6.57;;
82396;SDS011;72034;51.426;7.534;2023-08-20T16:58:06;7.93;;;6.60;;
82396;SDS011;72034;51.426;7.534;2023-08-20T17:00:31;6.45;;;5.43;;
82396;SDS011;72034;51.426;7.534;2023-08-20T17:02:59;8.63;;;6.30;;
82396;SDS011;72034;51.426;7.534;2023-08-20T17:05:25;8.00;;;6.25;;
82396;SDS011;72034;51.426;7.534;2023-08-20T17:07:50;6.88;;;6.28;;
82396;SDS011;72034;51.426;7.534;2023-08-20T17:10:15;7.32;;;6.22;;
82396;SDS011;72034;51.426;7.534;2023-08-20T17:12:42;6.80;;;5.45;;
82396;SDS011;72034;51.426;7.534;2023-08-20T17:15:08;7.05;;;5.45;;
82396;SDS011;72034;51.426;7.534;2023-08-20T17:17:34;8.25;;;5.60;;
82396;SDS011;72034;51.426;7.534;2023-08-20T17:19:59;6.50;;;5.65;;
82396;SDS011;72034;51.426;7.534;2023-08-20T17:22:24;9.13;;;5.78;;
82396;SDS011;72034;51.426;7.534;2023-08-20T17:24:50;6.75;;;5.75;;
82396;SDS011;72034;51.426;7.534;2023-08-20T17:27:15;8.10;;;6.07;;
82396;SDS011;72034;51.426;7.534;2023-08-20T17:29:40;6.95;;;6.10;;
82396;SDS011;72034;51.426;7.534;2023-08-20T17:32:05;6.68;;;5.55;;
82396;SDS011;72034;51.426;7.534;2023-08-20T17:34:31;7.25;;;5.18;;
82396;SDS011;72034;51.426;7.534;2023-08-20T17:36:58;6.80;;;5.93;;
82396;SDS011;72034;51.426;7.534;2023-08-20T17:39:24;7.25;;;5.55;;
82396;SDS011;72034;51.426;7.534;2023-08-20T17:41:49;7.03;;;5.85;;
82396;SDS011;72034;51.426;7.534;2023-08-20T17:44:14;6.78;;;5.72;;
82396;SDS011;72034;51.426;7.534;2023-08-20T17:46:46;7.20;;;5.45;;
82396;SDS011;72034;51.426;7.534;2023-08-20T17:49:12;7.30;;;5.05;;
82396;SDS011;72034;51.426;7.534;2023-08-20T17:51:38;7.32;;;6.22;;
82396;SDS011;72034;51.426;7.534;2023-08-20T17:54:04;7.13;;;6.40;;
82396;SDS011;72034;51.426;7.534;2023-08-20T17:56:29;7.25;;;5.68;;
82396;SDS011;72034;51.426;7.534;2023-08-20T17:58:55;8.27;;;5.78;;
82396;SDS011;72034;51.426;7.534;2023-08-20T18:01:20;7.50;;;4.50;;
82396;SDS011;72034;51.426;7.534;2023-08-20T18:03:45;5.43;;;4.15;;
82396;SDS011;72034;51.426;7.534;2023-08-20T18:06:11;5.88;;;3.78;;
82396;SDS011;72034;51.426;7.534;2023-08-20T18:08:36;7.50;;;4.07;;
82396;SDS011;72034;51.426;7.534;2023-08-20T18:11:01;5.60;;;3.80;;
82396;SDS011;72034;51.426;7.534;2023-08-20T18:13:26;6.13;;;3.80;;
82396;SDS011;72034;51.426;7.534;2023-08-20T18:15:52;8.20;;;4.90;;
82396;SDS011;72034;51.426;7.534;2023-08-20T18:18:17;7.00;;;4.03;;
82396;SDS011;72034;51.426;7.534;2023-08-20T18:20:42;8.60;;;4.57;;
82396;SDS011;72034;51.426;7.534;2023-08-20T18:23:08;6.13;;;3.80;;
82396;SDS011;72034;51.426;7.534;2023-08-20T18:25:33;8.50;;;3.97;;